sensor_id;sensor_type;location;lat;lon;timestamp;P1;durP1;ratioP1;P2;durP2;ratioP2
40637;SDS011;26336;44.696;10.622;2022-09-09T00:02:56;11.23;;;6.15;;
40637;SDS011;26336;44.696;10.622;2022-09-09T00:06:21;12.10;;;6.45;;
40637;SDS011;26336;44.696;10.622;2022-09-09T00:09:34;9.35;;;6.03;;
40637;SDS011;26336;44.696;10.622;2022-09-09T00:19:31;9.25;;;6.50;;
40637;SDS011;26336;44.696;10.622;2022-09-09T00:22:46;8.35;;;6.13;;
40637;SDS011;26336;44.696;10.622;2022-09-09T00:29:05;7.82;;;5.28;;
40637;SDS011;26336;44.696;10.622;2022-09-09T00:32:17;7.90;;;6.85;;
40637;SDS011;26336;44.696;10.622;2022-09-09T00:35:23;10.18;;;6.07;;
40637;SDS011;26336;44.696;10.622;2022-09-09T00:38:33;10.60;;;6.80;;
40637;SDS011;26336;44.696;10.622;2022-09-09T00:48:17;11.27;;;8.60;;
40637;SDS011;26336;44.696;10.622;2022-09-09T00:58:19;11.60;;;7.45;;
40637;SDS011;26336;44.696;10.622;2022-09-09T01:01:22;13.15;;;7.57;;
40637;SDS011;26336;44.696;10.622;2022-09-09T01:04:29;12.88;;;6.38;;
40637;SDS011;26336;44.696;10.622;2022-09-09T01:07:37;7.50;;;5.60;;
40637;SDS011;26336;44.696;10.622;2022-09-09T01:10:44;8.88;;;4.90;;
40637;SDS011;26336;44.696;10.622;2022-09-09T01:13:56;7.93;;;5.93;;
40637;SDS011;26336;44.696;10.622;2022-09-09T01:17:15;6.30;;;4.72;;
40637;SDS011;26336;44.696;10.622;2022-09-09T01:27:39;10.10;;;5.35;;
40637;SDS011;26336;44.696;10.622;2022-09-09T01:30:45;7.43;;;4.85;;
40637;SDS011;26336;44.696;10.622;2022-09-09T01:33:53;8.35;;;4.75;;
40637;SDS011;26336;44.696;10.622;2022-09-09T01:40:16;4.75;;;3.88;;
40637;SDS011;26336;44.696;10.622;2022-09-09T01:43:20;15.13;;;4.75;;
40637;SDS011;26336;44.696;10.622;2022-09-09T01:46:25;7.32;;;3.95;;
40637;SDS011;26336;44.696;10.622;2022-09-09T01:49:30;6.25;;;4.00;;
40637;SDS011;26336;44.696;10.622;2022-09-09T01:52:38;5.07;;;3.70;;
40637;SDS011;26336;44.696;10.622;2022-09-09T01:59:05;5.68;;;3.05;;
40637;SDS011;26336;44.696;10.622;2022-09-09T02:05:40;5.93;;;2.72;;
40637;SDS011;26336;44.696;10.622;2022-09-09T02:08:59;3.55;;;2.40;;
40637;SDS011;26336;44.696;10.622;2022-09-09T02:12:08;5.20;;;2.88;;
40637;SDS011;26336;44.696;10.622;2022-09-09T02:15:28;9.07;;;3.15;;
40637;SDS011;26336;44.696;10.622;2022-09-09T02:18:51;4.75;;;3.30;;
40637;SDS011;26336;44.696;10.622;2022-09-09T02:22:04;5.15;;;3.03;;
40637;SDS011;26336;44.696;10.622;2022-09-09T02:25:10;6.43;;;3.42;;
40637;SDS011;26336;44.696;10.622;2022-09-09T02:28:18;6.20;;;4.03;;
40637;SDS011;26336;44.696;10.622;2022-09-09T02:31:25;6.18;;;3.72;;
40637;SDS011;26336;44.696;10.622;2022-09-09T02:34:36;6.63;;;3.65;;
40637;SDS011;26336;44.696;10.622;2022-09-09T02:37:46;7.45;;;3.80;;
40637;SDS011;26336;44.696;10.622;2022-09-09T02:40:52;6.95;;;3.75;;
40637;SDS011;26336;44.696;10.622;2022-09-09T02:43:56;4.57;;;3.65;;
40637;SDS011;26336;44.696;10.622;2022-09-09T02:47:15;7.18;;;3.95;;
40637;SDS011;26336;44.696;10.622;2022-09-09T02:50:34;7.07;;;3.40;;
40637;SDS011;26336;44.696;10.622;2022-09-09T02:53:49;5.78;;;4.30;;
40637;SDS011;26336;44.696;10.622;2022-09-09T02:57:21;7.05;;;4.13;;
40637;SDS011;26336;44.696;10.622;2022-09-09T03:00:28;7.85;;;4.72;;
40637;SDS011;26336;44.696;10.622;2022-09-09T03:03:37;7.93;;;4.78;;
40637;SDS011;26336;44.696;10.622;2022-09-09T03:06:49;7.65;;;5.45;;
40637;SDS011;26336;44.696;10.622;2022-09-09T03:09:56;8.23;;;5.50;;
40637;SDS011;26336;44.696;10.622;2022-09-09T03:13:03;8.85;;;5.78;;
40637;SDS011;26336;44.696;10.622;2022-09-09T03:16:11;7.90;;;6.30;;
40637;SDS011;26336;44.696;10.622;2022-09-09T03:19:20;6.72;;;5.03;;
40637;SDS011;26336;44.696;10.622;2022-09-09T03:22:26;6.47;;;3.28;;
40637;SDS011;26336;44.696;10.622;2022-09-09T03:25:32;4.53;;;3.80;;
40637;SDS011;26336;44.696;10.622;2022-09-09T03:28:37;6.53;;;3.65;;
40637;SDS011;26336;44.696;10.622;2022-09-09T03:31:41;5.63;;;3.40;;
40637;SDS011;26336;44.696;10.622;2022-09-09T03:34:46;4.95;;;3.70;;
40637;SDS011;26336;44.696;10.622;2022-09-09T03:37:51;5.35;;;3.78;;
40637;SDS011;26336;44.696;10.622;2022-09-09T03:40:56;6.38;;;3.47;;
40637;SDS011;26336;44.696;10.622;2022-09-09T03:44:02;5.38;;;3.65;;
40637;SDS011;26336;44.696;10.622;2022-09-09T03:47:10;6.72;;;4.00;;
40637;SDS011;26336;44.696;10.622;2022-09-09T03:50:15;5.75;;;3.95;;
40637;SDS011;26336;44.696;10.622;2022-09-09T03:53:23;5.65;;;3.67;;
40637;SDS011;26336;44.696;10.622;2022-09-09T03:56:28;4.68;;;3.53;;
40637;SDS011;26336;44.696;10.622;2022-09-09T03:59:33;6.80;;;3.85;;
40637;SDS011;26336;44.696;10.622;2022-09-09T04:02:39;5.38;;;3.10;;
40637;SDS011;26336;44.696;10.622;2022-09-09T04:05:43;4.80;;;3.22;;
40637;SDS011;26336;44.696;10.622;2022-09-09T04:08:47;7.25;;;3.25;;
40637;SDS011;26336;44.696;10.622;2022-09-09T04:11:55;6.72;;;2.90;;
40637;SDS011;26336;44.696;10.622;2022-09-09T04:14:59;3.92;;;2.78;;
40637;SDS011;26336;44.696;10.622;2022-09-09T04:18:05;6.82;;;3.53;;
40637;SDS011;26336;44.696;10.622;2022-09-09T04:21:10;5.75;;;3.15;;
40637;SDS011;26336;44.696;10.622;2022-09-09T04:24:14;3.53;;;2.60;;
40637;SDS011;26336;44.696;10.622;2022-09-09T04:27:19;8.05;;;2.72;;
40637;SDS011;26336;44.696;10.622;2022-09-09T04:30:24;6.13;;;2.83;;
40637;SDS011;26336;44.696;10.622;2022-09-09T04:33:28;4.97;;;2.47;;
40637;SDS011;26336;44.696;10.622;2022-09-09T04:36:34;2.97;;;1.83;;
40637;SDS011;26336;44.696;10.622;2022-09-09T04:39:41;5.07;;;2.28;;
40637;SDS011;26336;44.696;10.622;2022-09-09T04:42:45;6.22;;;2.10;;
40637;SDS011;26336;44.696;10.622;2022-09-09T04:45:51;4.72;;;2.30;;
40637;SDS011;26336;44.696;10.622;2022-09-09T04:48:59;7.30;;;3.00;;
40637;SDS011;26336;44.696;10.622;2022-09-09T04:52:07;4.28;;;2.05;;
40637;SDS011;26336;44.696;10.622;2022-09-09T04:55:12;3.10;;;2.42;;
40637;SDS011;26336;44.696;10.622;2022-09-09T04:58:18;5.85;;;2.90;;
40637;SDS011;26336;44.696;10.622;2022-09-09T05:01:26;6.32;;;2.55;;
40637;SDS011;26336;44.696;10.622;2022-09-09T05:04:37;4.53;;;2.13;;
40637;SDS011;26336;44.696;10.622;2022-09-09T05:07:41;7.15;;;2.17;;
40637;SDS011;26336;44.696;10.622;2022-09-09T05:10:45;4.03;;;2.00;;
40637;SDS011;26336;44.696;10.622;2022-09-09T05:13:50;2.72;;;1.55;;
40637;SDS011;26336;44.696;10.622;2022-09-09T05:16:55;4.72;;;2.05;;
40637;SDS011;26336;44.696;10.622;2022-09-09T05:20:01;3.47;;;2.10;;
40637;SDS011;26336;44.696;10.622;2022-09-09T05:23:08;5.88;;;2.40;;
40637;SDS011;26336;44.696;10.622;2022-09-09T05:26:16;3.70;;;2.10;;
40637;SDS011;26336;44.696;10.622;2022-09-09T05:29:24;3.83;;;1.85;;
40637;SDS011;26336;44.696;10.622;2022-09-09T05:32:30;4.30;;;1.98;;
40637;SDS011;26336;44.696;10.622;2022-09-09T05:35:37;3.30;;;1.45;;
40637;SDS011;26336;44.696;10.622;2022-09-09T05:38:41;4.32;;;2.03;;
40637;SDS011;26336;44.696;10.622;2022-09-09T05:41:47;4.85;;;1.70;;
40637;SDS011;26336;44.696;10.622;2022-09-09T05:44:51;3.33;;;1.92;;
40637;SDS011;26336;44.696;10.622;2022-09-09T05:47:58;7.65;;;1.45;;
40637;SDS011;26336;44.696;10.622;2022-09-09T05:51:04;3.53;;;1.50;;
40637;SDS011;26336;44.696;10.622;2022-09-09T05:54:10;6.13;;;1.88;;
40637;SDS011;26336;44.696;10.622;2022-09-09T05:57:20;4.00;;;1.67;;
40637;SDS011;26336;44.696;10.622;2022-09-09T06:00:24;4.95;;;2.00;;
40637;SDS011;26336;44.696;10.622;2022-09-09T06:03:29;4.47;;;1.60;;
40637;SDS011;26336;44.696;10.622;2022-09-09T06:06:34;4.75;;;2.30;;
40637;SDS011;26336;44.696;10.622;2022-09-09T06:09:41;6.40;;;2.42;;
40637;SDS011;26336;44.696;10.622;2022-09-09T06:12:45;7.05;;;2.30;;
40637;SDS011;26336;44.696;10.622;2022-09-09T06:15:50;3.55;;;2.03;;
40637;SDS011;26336;44.696;10.622;2022-09-09T06:18:56;6.00;;;3.03;;
40637;SDS011;26336;44.696;10.622;2022-09-09T06:22:02;7.35;;;4.88;;
40637;SDS011;26336;44.696;10.622;2022-09-09T06:25:10;10.98;;;5.75;;
40637;SDS011;26336;44.696;10.622;2022-09-09T06:28:16;14.25;;;8.60;;
40637;SDS011;26336;44.696;10.622;2022-09-09T06:31:22;12.60;;;9.27;;
40637;SDS011;26336;44.696;10.622;2022-09-09T06:34:29;17.10;;;11.88;;
40637;SDS011;26336;44.696;10.622;2022-09-09T06:37:37;13.32;;;10.40;;
40637;SDS011;26336;44.696;10.622;2022-09-09T06:40:40;18.30;;;15.02;;
40637;SDS011;26336;44.696;10.622;2022-09-09T06:43:46;19.98;;;16.25;;
40637;SDS011;26336;44.696;10.622;2022-09-09T06:46:50;26.88;;;19.13;;
40637;SDS011;26336;44.696;10.622;2022-09-09T06:49:54;27.30;;;19.80;;
40637;SDS011;26336;44.696;10.622;2022-09-09T06:52:59;30.90;;;20.77;;
40637;SDS011;26336;44.696;10.622;2022-09-09T06:59:13;27.92;;;18.45;;
40637;SDS011;26336;44.696;10.622;2022-09-09T07:02:17;34.22;;;19.75;;
40637;SDS011;26336;44.696;10.622;2022-09-09T07:05:22;28.48;;;18.58;;
40637;SDS011;26336;44.696;10.622;2022-09-09T07:08:26;34.03;;;23.00;;
40637;SDS011;26336;44.696;10.622;2022-09-09T07:11:37;32.05;;;19.83;;
40637;SDS011;26336;44.696;10.622;2022-09-09T07:14:45;29.80;;;18.20;;
40637;SDS011;26336;44.696;10.622;2022-09-09T07:17:50;34.55;;;21.52;;
40637;SDS011;26336;44.696;10.622;2022-09-09T07:20:55;33.20;;;21.45;;
40637;SDS011;26336;44.696;10.622;2022-09-09T07:24:01;38.20;;;24.30;;
40637;SDS011;26336;44.696;10.622;2022-09-09T07:27:06;34.10;;;19.92;;
40637;SDS011;26336;44.696;10.622;2022-09-09T07:30:10;34.20;;;22.38;;
40637;SDS011;26336;44.696;10.622;2022-09-09T07:33:14;27.65;;;18.13;;
40637;SDS011;26336;44.696;10.622;2022-09-09T07:36:20;29.23;;;19.27;;
40637;SDS011;26336;44.696;10.622;2022-09-09T07:39:30;24.73;;;18.38;;
40637;SDS011;26336;44.696;10.622;2022-09-09T07:42:33;27.55;;;22.85;;
40637;SDS011;26336;44.696;10.622;2022-09-09T07:45:38;35.78;;;24.63;;
40637;SDS011;26336;44.696;10.622;2022-09-09T07:48:44;36.65;;;23.63;;
40637;SDS011;26336;44.696;10.622;2022-09-09T07:51:55;35.28;;;23.05;;
40637;SDS011;26336;44.696;10.622;2022-09-09T07:54:59;39.97;;;25.35;;
40637;SDS011;26336;44.696;10.622;2022-09-09T07:58:05;38.72;;;26.40;;
40637;SDS011;26336;44.696;10.622;2022-09-09T08:01:10;45.25;;;28.33;;
40637;SDS011;26336;44.696;10.622;2022-09-09T08:04:18;41.30;;;26.27;;
40637;SDS011;26336;44.696;10.622;2022-09-09T08:07:24;33.97;;;24.45;;
40637;SDS011;26336;44.696;10.622;2022-09-09T08:10:31;42.80;;;29.00;;
40637;SDS011;26336;44.696;10.622;2022-09-09T08:13:36;37.58;;;26.95;;
40637;SDS011;26336;44.696;10.622;2022-09-09T08:16:42;37.38;;;26.60;;
40637;SDS011;26336;44.696;10.622;2022-09-09T08:19:49;41.53;;;29.42;;
40637;SDS011;26336;44.696;10.622;2022-09-09T08:22:58;47.13;;;30.08;;
40637;SDS011;26336;44.696;10.622;2022-09-09T08:26:03;36.78;;;27.88;;
40637;SDS011;26336;44.696;10.622;2022-09-09T08:29:12;42.53;;;27.58;;
40637;SDS011;26336;44.696;10.622;2022-09-09T08:32:20;35.75;;;24.50;;
40637;SDS011;26336;44.696;10.622;2022-09-09T08:35:25;33.03;;;23.90;;
40637;SDS011;26336;44.696;10.622;2022-09-09T08:38:30;38.92;;;27.35;;
40637;SDS011;26336;44.696;10.622;2022-09-09T08:51:41;46.22;;;29.92;;
40637;SDS011;26336;44.696;10.622;2022-09-09T08:54:46;39.85;;;29.50;;
40637;SDS011;26336;44.696;10.622;2022-09-09T08:57:52;38.00;;;26.83;;
40637;SDS011;26336;44.696;10.622;2022-09-09T09:01:02;39.40;;;27.83;;
40637;SDS011;26336;44.696;10.622;2022-09-09T09:04:26;37.78;;;27.30;;
40637;SDS011;26336;44.696;10.622;2022-09-09T09:07:51;39.22;;;27.50;;
40637;SDS011;26336;44.696;10.622;2022-09-09T09:11:10;34.25;;;24.80;;
40637;SDS011;26336;44.696;10.622;2022-09-09T09:14:17;38.92;;;24.67;;
40637;SDS011;26336;44.696;10.622;2022-09-09T09:17:25;32.42;;;24.33;;
40637;SDS011;26336;44.696;10.622;2022-09-09T09:23:54;31.77;;;20.65;;
40637;SDS011;26336;44.696;10.622;2022-09-09T09:27:07;26.63;;;20.35;;
40637;SDS011;26336;44.696;10.622;2022-09-09T09:30:35;33.63;;;21.38;;
40637;SDS011;26336;44.696;10.622;2022-09-09T09:33:47;27.77;;;19.60;;
40637;SDS011;26336;44.696;10.622;2022-09-09T09:36:56;25.15;;;18.85;;
40637;SDS011;26336;44.696;10.622;2022-09-09T09:40:09;23.50;;;18.75;;
40637;SDS011;26336;44.696;10.622;2022-09-09T09:43:16;27.30;;;19.95;;
40637;SDS011;26336;44.696;10.622;2022-09-09T09:46:27;25.20;;;17.55;;
40637;SDS011;26336;44.696;10.622;2022-09-09T09:49:38;25.85;;;17.90;;
40637;SDS011;26336;44.696;10.622;2022-09-09T09:52:51;27.33;;;16.10;;
40637;SDS011;26336;44.696;10.622;2022-09-09T09:56:02;23.05;;;15.35;;
40637;SDS011;26336;44.696;10.622;2022-09-09T10:02:37;18.17;;;14.07;;
40637;SDS011;26336;44.696;10.622;2022-09-09T10:05:46;20.77;;;13.85;;
40637;SDS011;26336;44.696;10.622;2022-09-09T10:08:50;15.23;;;11.77;;
40637;SDS011;26336;44.696;10.622;2022-09-09T10:15:19;16.38;;;12.90;;
40637;SDS011;26336;44.696;10.622;2022-09-09T10:22:08;19.40;;;12.55;;
40637;SDS011;26336;44.696;10.622;2022-09-09T10:25:31;17.23;;;9.50;;
40637;SDS011;26336;44.696;10.622;2022-09-09T10:29:09;14.65;;;9.38;;
40637;SDS011;26336;44.696;10.622;2022-09-09T10:35:51;11.50;;;7.57;;
40637;SDS011;26336;44.696;10.622;2022-09-09T10:39:18;13.27;;;9.07;;
40637;SDS011;26336;44.696;10.622;2022-09-09T10:42:38;8.90;;;6.45;;
40637;SDS011;26336;44.696;10.622;2022-09-09T10:45:47;9.20;;;4.10;;
40637;SDS011;26336;44.696;10.622;2022-09-09T10:52:30;7.55;;;4.30;;
40637;SDS011;26336;44.696;10.622;2022-09-09T10:55:52;8.10;;;3.00;;
40637;SDS011;26336;44.696;10.622;2022-09-09T10:59:00;5.20;;;2.88;;
40637;SDS011;26336;44.696;10.622;2022-09-09T11:02:27;10.25;;;3.15;;
40637;SDS011;26336;44.696;10.622;2022-09-09T11:05:38;7.10;;;3.30;;
40637;SDS011;26336;44.696;10.622;2022-09-09T11:08:51;6.65;;;3.08;;
40637;SDS011;26336;44.696;10.622;2022-09-09T11:11:57;10.23;;;3.75;;
40637;SDS011;26336;44.696;10.622;2022-09-09T11:15:04;6.60;;;2.90;;
40637;SDS011;26336;44.696;10.622;2022-09-09T11:18:18;9.27;;;4.68;;
40637;SDS011;26336;44.696;10.622;2022-09-09T11:21:27;5.93;;;3.97;;
40637;SDS011;26336;44.696;10.622;2022-09-09T11:24:41;8.57;;;5.72;;
40637;SDS011;26336;44.696;10.622;2022-09-09T11:31:22;9.80;;;4.07;;
40637;SDS011;26336;44.696;10.622;2022-09-09T11:34:39;7.68;;;4.57;;
40637;SDS011;26336;44.696;10.622;2022-09-09T11:41:35;7.70;;;4.90;;
40637;SDS011;26336;44.696;10.622;2022-09-09T11:44:41;7.28;;;5.63;;
40637;SDS011;26336;44.696;10.622;2022-09-09T11:47:56;11.90;;;6.07;;
40637;SDS011;26336;44.696;10.622;2022-09-09T11:51:03;12.90;;;5.75;;
40637;SDS011;26336;44.696;10.622;2022-09-09T11:54:44;6.90;;;4.78;;
40637;SDS011;26336;44.696;10.622;2022-09-09T11:58:02;4.88;;;3.58;;
40637;SDS011;26336;44.696;10.622;2022-09-09T12:01:15;9.52;;;4.05;;
40637;SDS011;26336;44.696;10.622;2022-09-09T12:07:37;3.70;;;2.03;;
40637;SDS011;26336;44.696;10.622;2022-09-09T12:10:53;11.00;;;2.50;;
40637;SDS011;26336;44.696;10.622;2022-09-09T12:14:00;4.93;;;1.83;;
40637;SDS011;26336;44.696;10.622;2022-09-09T12:26:52;3.40;;;1.70;;
40637;SDS011;26336;44.696;10.622;2022-09-09T12:30:20;5.63;;;2.45;;
40637;SDS011;26336;44.696;10.622;2022-09-09T12:33:33;6.95;;;2.50;;
40637;SDS011;26336;44.696;10.622;2022-09-09T12:36:38;4.50;;;2.08;;
40637;SDS011;26336;44.696;10.622;2022-09-09T12:39:54;3.90;;;2.25;;
40637;SDS011;26336;44.696;10.622;2022-09-09T12:43:00;4.22;;;2.35;;
40637;SDS011;26336;44.696;10.622;2022-09-09T12:46:28;5.93;;;2.10;;
40637;SDS011;26336;44.696;10.622;2022-09-09T12:49:39;6.80;;;1.98;;
40637;SDS011;26336;44.696;10.622;2022-09-09T12:52:44;5.95;;;2.63;;
40637;SDS011;26336;44.696;10.622;2022-09-09T12:55:51;7.72;;;1.85;;
40637;SDS011;26336;44.696;10.622;2022-09-09T12:58:58;3.72;;;1.90;;
40637;SDS011;26336;44.696;10.622;2022-09-09T13:02:27;5.88;;;2.28;;
40637;SDS011;26336;44.696;10.622;2022-09-09T13:05:35;4.60;;;2.05;;
40637;SDS011;26336;44.696;10.622;2022-09-09T13:08:42;7.70;;;2.47;;
40637;SDS011;26336;44.696;10.622;2022-09-09T13:11:49;4.45;;;2.08;;
40637;SDS011;26336;44.696;10.622;2022-09-09T13:14:56;6.25;;;1.98;;
40637;SDS011;26336;44.696;10.622;2022-09-09T13:18:02;5.25;;;2.03;;
40637;SDS011;26336;44.696;10.622;2022-09-09T13:21:11;7.63;;;2.20;;
40637;SDS011;26336;44.696;10.622;2022-09-09T13:27:28;4.07;;;2.10;;
40637;SDS011;26336;44.696;10.622;2022-09-09T13:30:35;2.90;;;1.80;;
40637;SDS011;26336;44.696;10.622;2022-09-09T13:33:43;3.10;;;2.13;;
40637;SDS011;26336;44.696;10.622;2022-09-09T13:36:47;3.58;;;2.30;;
40637;SDS011;26336;44.696;10.622;2022-09-09T13:39:52;5.40;;;2.47;;
40637;SDS011;26336;44.696;10.622;2022-09-09T13:42:57;3.10;;;1.70;;
40637;SDS011;26336;44.696;10.622;2022-09-09T13:46:03;4.07;;;2.25;;
40637;SDS011;26336;44.696;10.622;2022-09-09T13:49:24;4.45;;;2.10;;
40637;SDS011;26336;44.696;10.622;2022-09-09T13:52:33;6.63;;;1.95;;
40637;SDS011;26336;44.696;10.622;2022-09-09T13:55:37;5.03;;;2.67;;
40637;SDS011;26336;44.696;10.622;2022-09-09T13:58:42;8.77;;;2.50;;
40637;SDS011;26336;44.696;10.622;2022-09-09T14:01:46;2.65;;;1.65;;
40637;SDS011;26336;44.696;10.622;2022-09-09T14:04:51;5.55;;;2.35;;
40637;SDS011;26336;44.696;10.622;2022-09-09T14:07:58;6.82;;;2.22;;
40637;SDS011;26336;44.696;10.622;2022-09-09T14:11:04;2.97;;;2.20;;
40637;SDS011;26336;44.696;10.622;2022-09-09T14:14:08;3.58;;;1.95;;
40637;SDS011;26336;44.696;10.622;2022-09-09T14:17:12;5.13;;;2.60;;
40637;SDS011;26336;44.696;10.622;2022-09-09T14:20:15;8.20;;;2.05;;
40637;SDS011;26336;44.696;10.622;2022-09-09T14:23:20;5.13;;;2.22;;
40637;SDS011;26336;44.696;10.622;2022-09-09T14:26:25;5.15;;;2.38;;
40637;SDS011;26336;44.696;10.622;2022-09-09T14:29:30;5.47;;;1.88;;
40637;SDS011;26336;44.696;10.622;2022-09-09T14:32:34;7.65;;;2.90;;
40637;SDS011;26336;44.696;10.622;2022-09-09T14:35:38;6.88;;;1.85;;
40637;SDS011;26336;44.696;10.622;2022-09-09T14:38:44;5.93;;;1.92;;
40637;SDS011;26336;44.696;10.622;2022-09-09T14:41:48;3.72;;;1.90;;
40637;SDS011;26336;44.696;10.622;2022-09-09T14:44:52;5.15;;;2.03;;
40637;SDS011;26336;44.696;10.622;2022-09-09T14:47:56;4.45;;;1.90;;
40637;SDS011;26336;44.696;10.622;2022-09-09T14:54:20;8.80;;;2.40;;
40637;SDS011;26336;44.696;10.622;2022-09-09T14:57:26;6.95;;;2.08;;
40637;SDS011;26336;44.696;10.622;2022-09-09T15:00:30;4.93;;;1.73;;
40637;SDS011;26336;44.696;10.622;2022-09-09T15:03:34;5.63;;;1.90;;
40637;SDS011;26336;44.696;10.622;2022-09-09T15:06:39;5.60;;;2.00;;
40637;SDS011;26336;44.696;10.622;2022-09-09T15:09:48;3.35;;;1.95;;
40637;SDS011;26336;44.696;10.622;2022-09-09T15:12:52;4.32;;;1.70;;
40637;SDS011;26336;44.696;10.622;2022-09-09T15:16:02;6.55;;;2.20;;
40637;SDS011;26336;44.696;10.622;2022-09-09T15:19:08;2.60;;;1.90;;
40637;SDS011;26336;44.696;10.622;2022-09-09T15:22:12;3.60;;;1.73;;
40637;SDS011;26336;44.696;10.622;2022-09-09T15:25:17;5.90;;;2.55;;
40637;SDS011;26336;44.696;10.622;2022-09-09T15:28:21;2.58;;;2.00;;
40637;SDS011;26336;44.696;10.622;2022-09-09T15:31:27;2.90;;;1.90;;
40637;SDS011;26336;44.696;10.622;2022-09-09T15:34:33;6.30;;;2.03;;
40637;SDS011;26336;44.696;10.622;2022-09-09T15:37:37;4.05;;;1.95;;
40637;SDS011;26336;44.696;10.622;2022-09-09T15:40:41;5.85;;;2.38;;
40637;SDS011;26336;44.696;10.622;2022-09-09T15:43:46;5.03;;;2.03;;
40637;SDS011;26336;44.696;10.622;2022-09-09T15:46:53;6.20;;;2.45;;
40637;SDS011;26336;44.696;10.622;2022-09-09T15:49:57;3.90;;;2.63;;
40637;SDS011;26336;44.696;10.622;2022-09-09T15:53:01;5.82;;;2.28;;
40637;SDS011;26336;44.696;10.622;2022-09-09T15:56:05;1.63;;;1.52;;
40637;SDS011;26336;44.696;10.622;2022-09-09T15:59:10;4.13;;;2.33;;
40637;SDS011;26336;44.696;10.622;2022-09-09T16:02:14;5.47;;;2.10;;
40637;SDS011;26336;44.696;10.622;2022-09-09T16:05:18;11.55;;;2.78;;
40637;SDS011;26336;44.696;10.622;2022-09-09T16:08:24;5.90;;;2.83;;
40637;SDS011;26336;44.696;10.622;2022-09-09T16:11:30;4.90;;;2.75;;
40637;SDS011;26336;44.696;10.622;2022-09-09T16:14:39;6.65;;;3.60;;
40637;SDS011;26336;44.696;10.622;2022-09-09T16:17:43;4.40;;;2.78;;
40637;SDS011;26336;44.696;10.622;2022-09-09T16:20:54;8.57;;;3.42;;
40637;SDS011;26336;44.696;10.622;2022-09-09T16:23:59;5.93;;;3.40;;
40637;SDS011;26336;44.696;10.622;2022-09-09T16:27:05;3.75;;;2.90;;
40637;SDS011;26336;44.696;10.622;2022-09-09T16:30:10;7.22;;;3.67;;
40637;SDS011;26336;44.696;10.622;2022-09-09T16:33:14;7.63;;;2.85;;
40637;SDS011;26336;44.696;10.622;2022-09-09T16:36:21;8.80;;;3.58;;
40637;SDS011;26336;44.696;10.622;2022-09-09T16:39:26;9.23;;;3.58;;
40637;SDS011;26336;44.696;10.622;2022-09-09T16:42:30;5.70;;;3.03;;
40637;SDS011;26336;44.696;10.622;2022-09-09T16:45:40;5.40;;;2.85;;
40637;SDS011;26336;44.696;10.622;2022-09-09T16:48:46;6.63;;;2.92;;
40637;SDS011;26336;44.696;10.622;2022-09-09T16:51:50;6.15;;;3.05;;
40637;SDS011;26336;44.696;10.622;2022-09-09T16:54:57;5.28;;;2.60;;
40637;SDS011;26336;44.696;10.622;2022-09-09T16:58:01;5.63;;;2.92;;
40637;SDS011;26336;44.696;10.622;2022-09-09T17:01:05;4.68;;;2.30;;
40637;SDS011;26336;44.696;10.622;2022-09-09T17:04:10;6.22;;;2.58;;
40637;SDS011;26336;44.696;10.622;2022-09-09T17:07:23;6.05;;;2.25;;
40637;SDS011;26336;44.696;10.622;2022-09-09T17:10:28;5.18;;;2.40;;
40637;SDS011;26336;44.696;10.622;2022-09-09T17:13:32;6.18;;;3.05;;
40637;SDS011;26336;44.696;10.622;2022-09-09T17:16:36;4.10;;;2.38;;
40637;SDS011;26336;44.696;10.622;2022-09-09T17:19:42;5.18;;;2.85;;
40637;SDS011;26336;44.696;10.622;2022-09-09T17:22:46;4.25;;;2.67;;
40637;SDS011;26336;44.696;10.622;2022-09-09T17:25:57;4.73;;;2.83;;
40637;SDS011;26336;44.696;10.622;2022-09-09T17:29:02;5.45;;;2.72;;
40637;SDS011;26336;44.696;10.622;2022-09-09T17:32:06;5.45;;;2.53;;
40637;SDS011;26336;44.696;10.622;2022-09-09T17:35:10;6.82;;;2.75;;
40637;SDS011;26336;44.696;10.622;2022-09-09T17:38:15;4.25;;;1.95;;
40637;SDS011;26336;44.696;10.622;2022-09-09T17:41:23;5.03;;;2.15;;
40637;SDS011;26336;44.696;10.622;2022-09-09T17:44:28;7.70;;;2.22;;
40637;SDS011;26336;44.696;10.622;2022-09-09T17:47:35;6.30;;;2.78;;
40637;SDS011;26336;44.696;10.622;2022-09-09T17:50:39;4.45;;;2.00;;
40637;SDS011;26336;44.696;10.622;2022-09-09T17:53:43;4.53;;;1.88;;
40637;SDS011;26336;44.696;10.622;2022-09-09T17:56:49;7.57;;;2.20;;
40637;SDS011;26336;44.696;10.622;2022-09-09T17:59:54;3.63;;;2.03;;
40637;SDS011;26336;44.696;10.622;2022-09-09T18:02:58;3.58;;;1.95;;
40637;SDS011;26336;44.696;10.622;2022-09-09T18:06:06;5.03;;;2.17;;
40637;SDS011;26336;44.696;10.622;2022-09-09T18:09:12;4.80;;;2.25;;
40637;SDS011;26336;44.696;10.622;2022-09-09T18:12:18;3.83;;;2.08;;
40637;SDS011;26336;44.696;10.622;2022-09-09T18:15:22;5.47;;;2.55;;
40637;SDS011;26336;44.696;10.622;2022-09-09T18:18:28;6.22;;;2.83;;
40637;SDS011;26336;44.696;10.622;2022-09-09T18:21:32;4.03;;;2.28;;
40637;SDS011;26336;44.696;10.622;2022-09-09T18:24:37;5.53;;;2.55;;
40637;SDS011;26336;44.696;10.622;2022-09-09T18:27:42;4.13;;;1.90;;
40637;SDS011;26336;44.696;10.622;2022-09-09T18:30:46;3.63;;;1.92;;
40637;SDS011;26336;44.696;10.622;2022-09-09T18:33:51;4.55;;;2.35;;
40637;SDS011;26336;44.696;10.622;2022-09-09T18:36:56;4.63;;;2.38;;
40637;SDS011;26336;44.696;10.622;2022-09-09T18:40:01;5.15;;;1.98;;
40637;SDS011;26336;44.696;10.622;2022-09-09T18:43:06;3.78;;;1.60;;
40637;SDS011;26336;44.696;10.622;2022-09-09T18:46:11;2.45;;;1.48;;
40637;SDS011;26336;44.696;10.622;2022-09-09T18:49:15;4.63;;;1.65;;
40637;SDS011;26336;44.696;10.622;2022-09-09T18:52:20;2.72;;;1.45;;
40637;SDS011;26336;44.696;10.622;2022-09-09T18:55:24;4.53;;;1.42;;
40637;SDS011;26336;44.696;10.622;2022-09-09T18:58:30;3.53;;;1.65;;
40637;SDS011;26336;44.696;10.622;2022-09-09T19:01:35;2.50;;;1.17;;
40637;SDS011;26336;44.696;10.622;2022-09-09T19:04:38;3.33;;;1.30;;
40637;SDS011;26336;44.696;10.622;2022-09-09T19:07:42;4.00;;;1.55;;
40637;SDS011;26336;44.696;10.622;2022-09-09T19:10:47;3.15;;;1.30;;
40637;SDS011;26336;44.696;10.622;2022-09-09T19:13:55;1.50;;;1.40;;
40637;SDS011;26336;44.696;10.622;2022-09-09T19:17:01;1.85;;;1.27;;
40637;SDS011;26336;44.696;10.622;2022-09-09T19:20:06;3.90;;;1.25;;
40637;SDS011;26336;44.696;10.622;2022-09-09T19:23:14;5.10;;;2.20;;
40637;SDS011;26336;44.696;10.622;2022-09-09T19:26:18;5.50;;;2.67;;
40637;SDS011;26336;44.696;10.622;2022-09-09T19:29:24;4.90;;;2.15;;
40637;SDS011;26336;44.696;10.622;2022-09-09T19:32:29;4.47;;;2.20;;
40637;SDS011;26336;44.696;10.622;2022-09-09T19:35:34;5.38;;;2.80;;
40637;SDS011;26336;44.696;10.622;2022-09-09T19:38:41;4.00;;;2.70;;
40637;SDS011;26336;44.696;10.622;2022-09-09T19:41:45;7.13;;;3.90;;
40637;SDS011;26336;44.696;10.622;2022-09-09T19:44:51;4.47;;;2.47;;
40637;SDS011;26336;44.696;10.622;2022-09-09T19:47:55;4.20;;;2.33;;
40637;SDS011;26336;44.696;10.622;2022-09-09T19:51:06;6.43;;;2.65;;
40637;SDS011;26336;44.696;10.622;2022-09-09T19:54:12;3.50;;;2.00;;
40637;SDS011;26336;44.696;10.622;2022-09-09T19:57:17;3.25;;;2.20;;
40637;SDS011;26336;44.696;10.622;2022-09-09T20:00:22;5.28;;;2.75;;
40637;SDS011;26336;44.696;10.622;2022-09-09T20:03:26;4.88;;;2.55;;
40637;SDS011;26336;44.696;10.622;2022-09-09T20:06:32;3.83;;;2.50;;
40637;SDS011;26336;44.696;10.622;2022-09-09T20:09:41;4.38;;;2.92;;